• Join FlightAware (Why Join?)
  • Login
  • US Flag 
01:40PM EDT


 

Airport Tracker/Info


-or-


 

Live Flight TrackerFlight Track Log ✈ FLG4057 ✈ 15-Apr-2013 ✈ KDTW - KAZO

Flight Track Log - Related Links

Times and Time Zones

All times are in EDT time to prevent confusion due to time zone crossing. See the FLG4057 flight status page for this flight to view local times or setup timezone preferences in your user account.

Time Position Orientation Groundspeed Altitude Reporting Facility
EDT Latitude Longitude Course Direction KTS MPH feet Rate Location/Type
04:16PM 42.2050 -83.3533 217° Southwest 156 180 1,200  Level FAA TRACON SMA TRACON (SMA)
04:17PM 42.1922 -83.3661 217° Southwest 154 177 2,200 2,220 Climbing FAA TRACON SMA TRACON (SMA)
04:17PM 42.1800 -83.3778 215° Southwest 178 205 2,700 2,220 Climbing FAA TRACON SMA TRACON (SMA)
04:17PM 42.1647 -83.3925 216° Southwest 186 214 3,700 2,400 Climbing FAA TRACON SMA TRACON (SMA)
04:18PM 42.1519 -83.4047 215° Southwest 199 229 4,300 1,800 Climbing FAA TRACON SMA TRACON (SMA)
04:18PM 42.1331 -83.4222 214° Southwest 226 260 4,900 1,980 Climbing FAA TRACON SMA TRACON (SMA)
04:18PM 42.1172 -83.4364 214° Southwest 235 270 5,600 2,700 Climbing FAA TRACON SMA TRACON (SMA)
04:19PM 42.0983 -83.4522 212° Southwest 236 272 6,700 2,520 Climbing FAA TRACON SMA TRACON (SMA)
04:19PM 42.0800 -83.4669 211° Southwest 250 288 7,300 2,160 Climbing FAA TRACON SMA TRACON (SMA)
04:19PM 42.0567 -83.4856 211° Southwest 265 305 8,200 2,880 Climbing FAA TRACON SMA TRACON (SMA)
04:20PM 42.0361 -83.5067 217° Southwest 262 302 9,300 2,520 Climbing FAA TRACON SMA TRACON (SMA)
04:20PM 42.0286 -83.5325 249° West 267 307 9,900 1,020 Climbing FAA TRACON SMA TRACON (SMA)
04:20PM 42.0344 -83.5719 281° West 299 344 10,000 120 Climbing FAA TRACON SMA TRACON (SMA)
04:21PM 42.0469 -83.6036 298° West 306 352 10,000  Level FAA TRACON SMA TRACON (SMA)
04:21PM 42.0597 -83.6364 298° West 317 365 10,000  Level FAA TRACON SMA TRACON (SMA)
04:21PM 42.0722 -83.6697 297° West 321 369 10,000  Level FAA TRACON SMA TRACON (SMA)
04:22PM 42.0878 -83.7119 296° West 324 373 10,000  Level FAA TRACON SMA TRACON (SMA)
04:22PM 42.1003 -83.7458 296° West 324 373 10,000  Level FAA TRACON SMA TRACON (SMA)
04:22PM 42.1125 -83.7789 297° West 323 372 10,000 600 Level FAA TRACON SMA TRACON (SMA)
04:23PM 42.1278 -83.8200 297° West 319 367 10,400 1,320 Climbing FAA TRACON SMA TRACON (SMA)
04:23PM 42.1397 -83.8519 297° West 314 361 10,900 1,200 Climbing FAA TRACON SMA TRACON (SMA)
04:23PM 42.1517 -83.8847 296° West 314 361 11,200 1,320 Climbing FAA TRACON SMA TRACON (SMA)
04:24PM 42.1667 -83.9258 296° West 317 365 11,800 1,200 Climbing FAA TRACON SMA TRACON (SMA)
04:24PM 42.1789 -83.9594 296° West 322 371 12,000 420 Climbing FAA TRACON SMA TRACON (SMA)
04:24PM 42.1919 -83.9950 296° West 338 389 12,100 120 Climbing FAA TRACON SMA TRACON (SMA)
04:25PM 42.2081 -84.0392 296° West 341 392 12,100  Level FAA TRACON SMA TRACON (SMA)
04:25PM 42.2211 -84.0744 297° West 340 391 12,100 -180 Level FAA TRACON SMA TRACON (SMA)
04:25PM 42.2339 -84.1092 296° West 337 388 12,000  Descending FAA TRACON SMA TRACON (SMA)
04:26PM 42.2494 -84.1522 296° West 333 383 12,100 120 Climbing FAA TRACON SMA TRACON (SMA)
04:26PM 42.2594 -84.1867 291° West 322 371 12,100  Level FAA TRACON SMA TRACON (SMA)
04:26PM 42.2631 -84.2228 278° West 312 359 12,100  Level FAA TRACON SMA TRACON (SMA)
04:27PM 42.2625 -84.2678 269° West 311 358 12,100  Level FAA TRACON SMA TRACON (SMA)
04:27PM 42.2619 -84.3033 269° West 309 356 12,100  Level FAA TRACON SMA TRACON (SMA)
04:27PM 42.2617 -84.3386 269° West 307 353 12,100 -180 Level FAA TRACON SMA TRACON (SMA)
04:28PM 42.2608 -84.3825 269° West 305 351 12,000 -600 Descending FAA TRACON SMA TRACON (SMA)
04:28PM 42.2606 -84.4172 269° West 301 346 11,700 -900 Descending FAA TRACON SMA TRACON (SMA)
04:28PM 42.2594 -84.4514 267° West 299 344 11,400 -900 Descending FAA TRACON SMA TRACON (SMA)
04:29PM 42.2592 -84.4947 270° West 300 345 11,100 -600 Descending FAA TRACON SMA TRACON (SMA)
04:29PM 42.2583 -84.5292 268° West 299 344 11,000  Descending FAA TRACON SMA TRACON (SMA)
04:29PM 42.2581 -84.5461 269° West 297 342 11,100 120 Climbing FAA TRACON SMA TRACON (SMA)
04:30PM 42.2581 -84.5461 190° South 297 342 11,100 -120 Level FAA TRACON SMA TRACON (SMA)
04:30PM 42.2561 -84.6856 269° West 290 334 11,000 -60 Descending Chicago Center
04:31PM 42.2528 -84.7969 268° West 295 339 11,000  Level Chicago Center
04:33PM 42.2511 -84.9100 269° West 300 345 11,000 -480 Level Chicago Center
04:34PM 42.2481 -85.0186 268° West 295 339 10,100 -1,560 Descending Chicago Center
04:35PM 42.2569 -85.1253 276° West 263 303 7,800 -2,160 Descending Chicago Center
04:36PM 42.2664 -85.2214 278° West 247 284 5,700 -1,860 Descending Chicago Center
04:37PM 42.2733 -85.3069 276° West 236 272 4,000 -960 Descending Chicago Center
04:38PM 42.2819 -85.3811 279° West 213 245 3,800 -780 Descending Chicago Center
04:39PM 42.2911 -85.4511 280° West 197 227 2,500 -780 Descending Chicago Center
04:40PM 42.3006 -85.5183 281° West 188 216 2,300 -240 Descending Chicago Center